Het weer levert geen direct gevaar op.    Er zijn geen waarschuwingen afgegeven.


Onweer radar Meer informatie blitzortung!


Regen radar Meer informatie rain snow radar


Bezoek onze andere website:

Template documentation
and downloads

And another site

EUWEATHER.EU


U vindt ons ook hier:

Het Weer Aktueel

UK Metoffice

European Weather Network

WeatherCloud

Weather Underground

AWEKAS

WeatherlinkIP

HAMweather, WeatherForYou, PWS Weather

Wetterpage 24

Wetter.com



METAR rapporten vliegvelden

   
EBAW - Antwerp
Gewijzigd: 20-10-2017 17:50
Licht bewolkt  
Licht bewolkt  
   Wind: ZW 22.2 km/h
Wind: ZW 22.2 km/h
Temperatuur: 15°C
Dauwpunt: 7°C
Vochtigheid: 59%
Barometer: 1011 hPa
Bewolking: Licht bewolkt
Zicht: meer dan 10 km
Bewolking: Licht bewolkt 3000 ft
EBAW 201550Z 23012KT 200V260 9999 FEW030 15/07 Q1011 NOSIG
EBLG - Li├Ęge
Gewijzigd: 20-10-2017 17:50
Grotendeels bewolkt  
Grotendeels bewolkt  
   Wind: ZW 25.9 km/h
Wind: ZW 25.9 km/h
Temperatuur: 13°C
Dauwpunt: 7°C
Vochtigheid: 67%
Barometer: 1013 hPa
Bewolking: Grotendeels bewolkt
Zicht: meer dan 10 km
Bewolking: Licht bewolkt 3200 ft,
Grotendeels bewolkt 4600 ft
EBLG 201550Z 22014KT 9999 FEW032 BKN046 13/07 Q1013 NOSIG
EBCV - Mons/Bergen
Gewijzigd: 20-10-2017 17:25
Grotendeels bewolkt  
Grotendeels bewolkt  
   Wind: ZW 24.1 km/h
Wind: ZW 24.1 km/h
Temperatuur: 14°C
Dauwpunt: 9°C
Vochtigheid: 72%
Barometer: 1012 hPa
Bewolking: Grotendeels bewolkt
Zicht: meer dan 10 km
Bewolking: Grotendeels bewolkt 4500 ft
EBCV 201525Z AUTO 23013KT 9999 BKN045/// 14/09 Q1012 BLU
EHBK - Maastricht
Gewijzigd: 20-10-2017 17:55
Bewolking  
Bewolking  
   Wind: ZW 35.2 km/h
Wind: ZW 35.2 km/h
Temperatuur: 14°C
Dauwpunt: 8°C
Vochtigheid: 67%
Barometer: 1012 hPa
Bewolking: Bewolking
Zicht: meer dan 10 km
Bewolking: Gedeeltelijk bewolkt 3900 ft,
Bewolking 4400 ft
EHBK 201555Z AUTO 22019KT 190V250 9999 SCT039 OVC044 14/08 Q1012 NOSIG
ELLX - Luxemburg
Gewijzigd: 20-10-2017 17:50
Licht bewolkt  
Licht bewolkt  
   Wind: ZW 16.7 km/h
Wind: ZW 16.7 km/h
Temperatuur: 13°C
Dauwpunt: 7°C
Vochtigheid: 67%
Barometer: 1015 hPa
Bewolking: Licht bewolkt
Zicht: meer dan 10 km
Bewolking: Licht bewolkt 4800 ft
ELLX 201550Z 23009KT 190V250 9999 FEW048 13/07 Q1015 TEMPO 23015G25KT
EBOS - Oostende
Gewijzigd: 20-10-2017 17:50
Gedeeltelijk bewolkt  
Gedeeltelijk bewolkt  
   Wind: ZW 33.3 km/h<br />Gust to 33.3 km/h
Wind: ZW 33.3 km/h
Gust to 33.3 km/h
Temperatuur: 13°C
Dauwpunt: 8°C
Vochtigheid: 72%
Barometer: 1011 hPa
Bewolking: Gedeeltelijk bewolkt
Zicht: meer dan 10 km
Bewolking: Licht bewolkt 2000 ft,
Gedeeltelijk bewolkt 3200 ft
EBOS 201550Z 23018G29KT 9999 FEW020 SCT032 13/08 Q1011 NOSIG

Script ontwikkeld door  Saratoga-weather.org Aangepast voor de template door  Weerstation Leuven

Apparatuur in gebruik:

Weerstation
Davis VP2

Weerprogramma
Meteobridge

Weercomputer
Asus WL -330N3G

Webleverancier
Onecom

Davis VP2

Meteobridge

Asus WL -330N3G

Onecom